sensor_id;sensor_type;location;lat;lon;timestamp;P1;durP1;ratioP1;P2;durP2;ratioP2
20146;SDS011;10234;50.856;15.716;2024-01-10T00:00:05;7.13;;;5.67;;
20146;SDS011;10234;50.856;15.716;2024-01-10T00:02:34;13.33;;;8.47;;
20146;SDS011;10234;50.856;15.716;2024-01-10T00:05:00;15.47;;;9.47;;
20146;SDS011;10234;50.856;15.716;2024-01-10T00:07:30;12.43;;;6.93;;
20146;SDS011;10234;50.856;15.716;2024-01-10T00:09:56;19.03;;;6.67;;
20146;SDS011;10234;50.856;15.716;2024-01-10T00:12:25;13.73;;;7.80;;
20146;SDS011;10234;50.856;15.716;2024-01-10T00:14:52;11.10;;;6.53;;
20146;SDS011;10234;50.856;15.716;2024-01-10T00:17:18;19.00;;;7.60;;
20146;SDS011;10234;50.856;15.716;2024-01-10T00:19:45;7.37;;;4.70;;
20146;SDS011;10234;50.856;15.716;2024-01-10T00:22:12;16.37;;;6.97;;
20146;SDS011;10234;50.856;15.716;2024-01-10T00:24:40;9.03;;;6.67;;
20146;SDS011;10234;50.856;15.716;2024-01-10T00:27:07;18.27;;;7.63;;
20146;SDS011;10234;50.856;15.716;2024-01-10T00:29:35;13.50;;;7.17;;
20146;SDS011;10234;50.856;15.716;2024-01-10T00:32:01;13.63;;;10.13;;
20146;SDS011;10234;50.856;15.716;2024-01-10T00:34:28;14.03;;;6.40;;
20146;SDS011;10234;50.856;15.716;2024-01-10T00:36:55;13.07;;;10.00;;
20146;SDS011;10234;50.856;15.716;2024-01-10T00:39:22;14.00;;;8.23;;
20146;SDS011;10234;50.856;15.716;2024-01-10T00:41:50;14.57;;;7.00;;
20146;SDS011;10234;50.856;15.716;2024-01-10T00:44:17;11.53;;;6.37;;
20146;SDS011;10234;50.856;15.716;2024-01-10T00:46:46;21.60;;;9.27;;
20146;SDS011;10234;50.856;15.716;2024-01-10T00:49:13;6.50;;;5.83;;
20146;SDS011;10234;50.856;15.716;2024-01-10T00:51:40;9.27;;;5.43;;
20146;SDS011;10234;50.856;15.716;2024-01-10T00:54:07;14.40;;;6.80;;
20146;SDS011;10234;50.856;15.716;2024-01-10T00:56:34;8.73;;;6.97;;
20146;SDS011;10234;50.856;15.716;2024-01-10T00:59:02;9.97;;;7.17;;
20146;SDS011;10234;50.856;15.716;2024-01-10T01:01:29;11.17;;;8.30;;
20146;SDS011;10234;50.856;15.716;2024-01-10T01:03:56;10.30;;;6.43;;
20146;SDS011;10234;50.856;15.716;2024-01-10T01:06:22;22.30;;;7.97;;
20146;SDS011;10234;50.856;15.716;2024-01-10T01:08:50;7.30;;;5.03;;
20146;SDS011;10234;50.856;15.716;2024-01-10T01:11:17;13.20;;;7.53;;
20146;SDS011;10234;50.856;15.716;2024-01-10T01:13:43;14.17;;;9.03;;
20146;SDS011;10234;50.856;15.716;2024-01-10T01:16:12;19.40;;;5.17;;
20146;SDS011;10234;50.856;15.716;2024-01-10T01:18:39;17.33;;;6.53;;
20146;SDS011;10234;50.856;15.716;2024-01-10T01:21:07;9.53;;;6.13;;
20146;SDS011;10234;50.856;15.716;2024-01-10T01:23:34;14.20;;;6.63;;
20146;SDS011;10234;50.856;15.716;2024-01-10T01:26:01;9.07;;;5.93;;
20146;SDS011;10234;50.856;15.716;2024-01-10T01:28:28;13.30;;;8.27;;
20146;SDS011;10234;50.856;15.716;2024-01-10T01:30:56;14.83;;;7.73;;
20146;SDS011;10234;50.856;15.716;2024-01-10T01:33:25;10.37;;;8.03;;
20146;SDS011;10234;50.856;15.716;2024-01-10T01:35:52;5.60;;;5.00;;
20146;SDS011;10234;50.856;15.716;2024-01-10T01:38:19;6.37;;;4.63;;
20146;SDS011;10234;50.856;15.716;2024-01-10T01:40:46;17.10;;;7.17;;
20146;SDS011;10234;50.856;15.716;2024-01-10T01:43:19;12.13;;;6.10;;
20146;SDS011;10234;50.856;15.716;2024-01-10T01:45:47;8.70;;;5.53;;
20146;SDS011;10234;50.856;15.716;2024-01-10T01:48:17;6.37;;;4.90;;
20146;SDS011;10234;50.856;15.716;2024-01-10T01:50:46;19.37;;;10.27;;
20146;SDS011;10234;50.856;15.716;2024-01-10T01:53:15;11.10;;;6.83;;
20146;SDS011;10234;50.856;15.716;2024-01-10T01:55:43;6.40;;;4.97;;
20146;SDS011;10234;50.856;15.716;2024-01-10T01:58:11;7.50;;;6.43;;
20146;SDS011;10234;50.856;15.716;2024-01-10T02:00:39;13.20;;;5.77;;
20146;SDS011;10234;50.856;15.716;2024-01-10T02:03:07;6.50;;;4.53;;
20146;SDS011;10234;50.856;15.716;2024-01-10T02:05:37;9.27;;;5.70;;
20146;SDS011;10234;50.856;15.716;2024-01-10T02:08:06;8.97;;;6.63;;
20146;SDS011;10234;50.856;15.716;2024-01-10T02:10:37;4.27;;;3.90;;
20146;SDS011;10234;50.856;15.716;2024-01-10T02:13:04;6.30;;;5.70;;
20146;SDS011;10234;50.856;15.716;2024-01-10T02:15:33;16.40;;;6.03;;
20146;SDS011;10234;50.856;15.716;2024-01-10T02:18:00;15.27;;;5.33;;
20146;SDS011;10234;50.856;15.716;2024-01-10T02:20:27;7.83;;;4.33;;
20146;SDS011;10234;50.856;15.716;2024-01-10T02:22:55;5.73;;;5.33;;
20146;SDS011;10234;50.856;15.716;2024-01-10T02:25:23;4.73;;;4.27;;
20146;SDS011;10234;50.856;15.716;2024-01-10T02:27:51;9.67;;;4.13;;
20146;SDS011;10234;50.856;15.716;2024-01-10T02:30:18;7.87;;;4.40;;
20146;SDS011;10234;50.856;15.716;2024-01-10T02:32:45;9.07;;;4.83;;
20146;SDS011;10234;50.856;15.716;2024-01-10T02:35:12;3.50;;;3.30;;
20146;SDS011;10234;50.856;15.716;2024-01-10T02:37:39;6.60;;;5.70;;
20146;SDS011;10234;50.856;15.716;2024-01-10T02:40:07;6.13;;;5.50;;
20146;SDS011;10234;50.856;15.716;2024-01-10T02:42:36;14.20;;;7.27;;
20146;SDS011;10234;50.856;15.716;2024-01-10T02:45:03;9.97;;;4.53;;
20146;SDS011;10234;50.856;15.716;2024-01-10T02:47:31;29.07;;;11.00;;
20146;SDS011;10234;50.856;15.716;2024-01-10T02:49:58;14.50;;;7.27;;
20146;SDS011;10234;50.856;15.716;2024-01-10T02:52:25;10.17;;;7.97;;
20146;SDS011;10234;50.856;15.716;2024-01-10T02:54:52;10.40;;;6.63;;
20146;SDS011;10234;50.856;15.716;2024-01-10T02:57:19;16.13;;;8.93;;
20146;SDS011;10234;50.856;15.716;2024-01-10T02:59:47;17.60;;;9.57;;
20146;SDS011;10234;50.856;15.716;2024-01-10T03:02:14;12.80;;;9.50;;
20146;SDS011;10234;50.856;15.716;2024-01-10T03:04:41;17.93;;;10.23;;
20146;SDS011;10234;50.856;15.716;2024-01-10T03:07:09;11.93;;;8.30;;
20146;SDS011;10234;50.856;15.716;2024-01-10T03:09:36;18.17;;;8.10;;
20146;SDS011;10234;50.856;15.716;2024-01-10T03:12:03;21.77;;;7.90;;
20146;SDS011;10234;50.856;15.716;2024-01-10T03:14:31;25.80;;;8.87;;
20146;SDS011;10234;50.856;15.716;2024-01-10T03:17:01;7.73;;;6.13;;
20146;SDS011;10234;50.856;15.716;2024-01-10T03:19:27;6.70;;;5.97;;
20146;SDS011;10234;50.856;15.716;2024-01-10T03:21:55;15.70;;;8.63;;
20146;SDS011;10234;50.856;15.716;2024-01-10T03:24:21;13.80;;;5.90;;
20146;SDS011;10234;50.856;15.716;2024-01-10T03:26:49;6.90;;;6.13;;
20146;SDS011;10234;50.856;15.716;2024-01-10T03:29:16;7.90;;;5.37;;
20146;SDS011;10234;50.856;15.716;2024-01-10T03:31:42;13.83;;;5.90;;
20146;SDS011;10234;50.856;15.716;2024-01-10T03:34:10;15.87;;;8.77;;
20146;SDS011;10234;50.856;15.716;2024-01-10T03:36:37;8.30;;;6.10;;
20146;SDS011;10234;50.856;15.716;2024-01-10T03:39:04;8.57;;;6.57;;
20146;SDS011;10234;50.856;15.716;2024-01-10T03:41:31;10.27;;;6.57;;
20146;SDS011;10234;50.856;15.716;2024-01-10T03:43:58;8.40;;;6.00;;
20146;SDS011;10234;50.856;15.716;2024-01-10T03:46:25;7.87;;;6.77;;
20146;SDS011;10234;50.856;15.716;2024-01-10T03:48:52;10.43;;;9.37;;
20146;SDS011;10234;50.856;15.716;2024-01-10T03:51:20;11.37;;;6.20;;
20146;SDS011;10234;50.856;15.716;2024-01-10T03:53:47;12.03;;;6.87;;
20146;SDS011;10234;50.856;15.716;2024-01-10T03:56:16;9.63;;;7.43;;
20146;SDS011;10234;50.856;15.716;2024-01-10T03:58:43;6.83;;;5.50;;
20146;SDS011;10234;50.856;15.716;2024-01-10T04:01:10;15.83;;;6.07;;
20146;SDS011;10234;50.856;15.716;2024-01-10T04:03:36;10.40;;;4.70;;
20146;SDS011;10234;50.856;15.716;2024-01-10T04:06:06;8.27;;;7.50;;
20146;SDS011;10234;50.856;15.716;2024-01-10T04:08:34;8.67;;;6.00;;
20146;SDS011;10234;50.856;15.716;2024-01-10T04:11:01;7.27;;;5.57;;
20146;SDS011;10234;50.856;15.716;2024-01-10T04:13:28;10.70;;;6.80;;
20146;SDS011;10234;50.856;15.716;2024-01-10T04:15:55;17.53;;;7.87;;
20146;SDS011;10234;50.856;15.716;2024-01-10T04:18:22;13.97;;;9.27;;
20146;SDS011;10234;50.856;15.716;2024-01-10T04:20:49;14.17;;;7.77;;
20146;SDS011;10234;50.856;15.716;2024-01-10T04:23:16;9.00;;;5.73;;
20146;SDS011;10234;50.856;15.716;2024-01-10T04:25:45;13.97;;;6.37;;
20146;SDS011;10234;50.856;15.716;2024-01-10T04:28:12;13.27;;;7.50;;
20146;SDS011;10234;50.856;15.716;2024-01-10T04:30:38;6.93;;;6.30;;
20146;SDS011;10234;50.856;15.716;2024-01-10T04:33:05;9.93;;;5.67;;
20146;SDS011;10234;50.856;15.716;2024-01-10T04:35:32;18.37;;;10.03;;
20146;SDS011;10234;50.856;15.716;2024-01-10T04:37:59;15.93;;;7.00;;
20146;SDS011;10234;50.856;15.716;2024-01-10T04:40:26;18.37;;;4.67;;
20146;SDS011;10234;50.856;15.716;2024-01-10T04:42:54;15.00;;;7.37;;
20146;SDS011;10234;50.856;15.716;2024-01-10T04:45:21;7.20;;;5.37;;
20146;SDS011;10234;50.856;15.716;2024-01-10T04:47:47;10.60;;;9.57;;
20146;SDS011;10234;50.856;15.716;2024-01-10T04:50:15;7.30;;;4.30;;
20146;SDS011;10234;50.856;15.716;2024-01-10T04:52:41;10.97;;;6.53;;
20146;SDS011;10234;50.856;15.716;2024-01-10T04:55:08;6.73;;;4.90;;
20146;SDS011;10234;50.856;15.716;2024-01-10T04:57:36;13.80;;;5.73;;
20146;SDS011;10234;50.856;15.716;2024-01-10T05:00:05;9.97;;;6.83;;
20146;SDS011;10234;50.856;15.716;2024-01-10T05:02:33;9.20;;;6.17;;
20146;SDS011;10234;50.856;15.716;2024-01-10T05:05:00;15.13;;;6.80;;
20146;SDS011;10234;50.856;15.716;2024-01-10T05:07:29;9.20;;;6.87;;
20146;SDS011;10234;50.856;15.716;2024-01-10T05:09:56;8.43;;;7.53;;
20146;SDS011;10234;50.856;15.716;2024-01-10T05:12:23;5.23;;;4.77;;
20146;SDS011;10234;50.856;15.716;2024-01-10T05:14:50;16.60;;;6.13;;
20146;SDS011;10234;50.856;15.716;2024-01-10T05:17:18;13.53;;;6.67;;
20146;SDS011;10234;50.856;15.716;2024-01-10T05:19:45;8.07;;;6.10;;
20146;SDS011;10234;50.856;15.716;2024-01-10T05:22:12;8.53;;;4.40;;
20146;SDS011;10234;50.856;15.716;2024-01-10T05:24:39;5.83;;;5.10;;
20146;SDS011;10234;50.856;15.716;2024-01-10T05:27:06;12.90;;;6.90;;
20146;SDS011;10234;50.856;15.716;2024-01-10T05:29:33;7.57;;;6.33;;
20146;SDS011;10234;50.856;15.716;2024-01-10T05:32:00;8.60;;;5.67;;
20146;SDS011;10234;50.856;15.716;2024-01-10T05:34:28;18.33;;;5.90;;
20146;SDS011;10234;50.856;15.716;2024-01-10T05:36:55;16.93;;;6.23;;
20146;SDS011;10234;50.856;15.716;2024-01-10T05:39:22;13.87;;;5.77;;
20146;SDS011;10234;50.856;15.716;2024-01-10T05:41:51;7.93;;;5.77;;
20146;SDS011;10234;50.856;15.716;2024-01-10T05:44:18;13.10;;;4.83;;
20146;SDS011;10234;50.856;15.716;2024-01-10T05:46:45;10.57;;;6.70;;
20146;SDS011;10234;50.856;15.716;2024-01-10T05:49:12;7.43;;;5.77;;
20146;SDS011;10234;50.856;15.716;2024-01-10T05:51:43;7.33;;;4.97;;
20146;SDS011;10234;50.856;15.716;2024-01-10T05:54:10;9.00;;;4.50;;
20146;SDS011;10234;50.856;15.716;2024-01-10T05:56:38;7.37;;;4.73;;
20146;SDS011;10234;50.856;15.716;2024-01-10T05:59:04;11.97;;;5.90;;
20146;SDS011;10234;50.856;15.716;2024-01-10T06:01:31;14.63;;;8.13;;
20146;SDS011;10234;50.856;15.716;2024-01-10T06:03:58;12.43;;;7.87;;
20146;SDS011;10234;50.856;15.716;2024-01-10T06:06:26;9.00;;;5.13;;
20146;SDS011;10234;50.856;15.716;2024-01-10T06:08:54;7.23;;;6.53;;
20146;SDS011;10234;50.856;15.716;2024-01-10T06:11:21;12.30;;;8.07;;
20146;SDS011;10234;50.856;15.716;2024-01-10T06:13:48;16.00;;;7.77;;
20146;SDS011;10234;50.856;15.716;2024-01-10T06:16:15;15.63;;;7.30;;
20146;SDS011;10234;50.856;15.716;2024-01-10T06:18:42;11.53;;;8.87;;
20146;SDS011;10234;50.856;15.716;2024-01-10T06:21:09;11.40;;;7.00;;
20146;SDS011;10234;50.856;15.716;2024-01-10T06:23:37;19.73;;;8.90;;
20146;SDS011;10234;50.856;15.716;2024-01-10T06:26:05;17.67;;;7.53;;
20146;SDS011;10234;50.856;15.716;2024-01-10T06:28:32;13.70;;;9.20;;
20146;SDS011;10234;50.856;15.716;2024-01-10T06:30:59;24.83;;;8.87;;
20146;SDS011;10234;50.856;15.716;2024-01-10T06:33:27;13.70;;;7.50;;
20146;SDS011;10234;50.856;15.716;2024-01-10T06:35:54;21.63;;;9.13;;
20146;SDS011;10234;50.856;15.716;2024-01-10T06:38:22;11.77;;;7.57;;
20146;SDS011;10234;50.856;15.716;2024-01-10T06:40:48;8.80;;;6.33;;
20146;SDS011;10234;50.856;15.716;2024-01-10T06:43:18;12.53;;;6.93;;
20146;SDS011;10234;50.856;15.716;2024-01-10T06:45:46;10.80;;;7.80;;
20146;SDS011;10234;50.856;15.716;2024-01-10T06:48:13;9.83;;;6.10;;
20146;SDS011;10234;50.856;15.716;2024-01-10T06:50:44;10.87;;;9.77;;
20146;SDS011;10234;50.856;15.716;2024-01-10T06:53:14;17.97;;;10.17;;
20146;SDS011;10234;50.856;15.716;2024-01-10T06:55:40;18.30;;;9.57;;
20146;SDS011;10234;50.856;15.716;2024-01-10T06:58:08;15.33;;;8.03;;
20146;SDS011;10234;50.856;15.716;2024-01-10T07:00:37;10.07;;;6.07;;
20146;SDS011;10234;50.856;15.716;2024-01-10T07:03:04;16.07;;;7.40;;
20146;SDS011;10234;50.856;15.716;2024-01-10T07:05:31;10.10;;;9.10;;
20146;SDS011;10234;50.856;15.716;2024-01-10T07:07:58;8.60;;;7.37;;
20146;SDS011;10234;50.856;15.716;2024-01-10T07:10:27;16.60;;;11.37;;
20146;SDS011;10234;50.856;15.716;2024-01-10T07:12:54;32.37;;;10.83;;
20146;SDS011;10234;50.856;15.716;2024-01-10T07:15:21;11.93;;;6.53;;
20146;SDS011;10234;50.856;15.716;2024-01-10T07:17:52;16.00;;;8.60;;
20146;SDS011;10234;50.856;15.716;2024-01-10T07:20:21;10.63;;;7.83;;
20146;SDS011;10234;50.856;15.716;2024-01-10T07:22:49;10.23;;;6.97;;
20146;SDS011;10234;50.856;15.716;2024-01-10T07:25:16;14.27;;;6.80;;
20146;SDS011;10234;50.856;15.716;2024-01-10T07:27:43;6.90;;;6.10;;
20146;SDS011;10234;50.856;15.716;2024-01-10T07:30:10;9.87;;;8.13;;
20146;SDS011;10234;50.856;15.716;2024-01-10T07:32:40;14.77;;;11.27;;
20146;SDS011;10234;50.856;15.716;2024-01-10T07:35:09;6.97;;;4.90;;
20146;SDS011;10234;50.856;15.716;2024-01-10T07:37:40;8.27;;;6.67;;
20146;SDS011;10234;50.856;15.716;2024-01-10T07:40:09;17.57;;;8.20;;
20146;SDS011;10234;50.856;15.716;2024-01-10T07:42:42;26.63;;;9.13;;
20146;SDS011;10234;50.856;15.716;2024-01-10T07:45:10;16.70;;;9.63;;
20146;SDS011;10234;50.856;15.716;2024-01-10T07:47:38;15.67;;;11.00;;
20146;SDS011;10234;50.856;15.716;2024-01-10T07:50:05;17.20;;;9.20;;
20146;SDS011;10234;50.856;15.716;2024-01-10T07:52:34;24.17;;;11.43;;
20146;SDS011;10234;50.856;15.716;2024-01-10T07:55:02;16.73;;;8.97;;
20146;SDS011;10234;50.856;15.716;2024-01-10T07:57:31;10.47;;;7.80;;
20146;SDS011;10234;50.856;15.716;2024-01-10T07:59:59;12.93;;;7.47;;
20146;SDS011;10234;50.856;15.716;2024-01-10T08:02:26;18.83;;;13.50;;
20146;SDS011;10234;50.856;15.716;2024-01-10T08:04:53;17.10;;;10.73;;
20146;SDS011;10234;50.856;15.716;2024-01-10T08:07:20;24.30;;;11.77;;
20146;SDS011;10234;50.856;15.716;2024-01-10T08:09:49;31.40;;;13.47;;
20146;SDS011;10234;50.856;15.716;2024-01-10T08:12:15;24.67;;;15.30;;
20146;SDS011;10234;50.856;15.716;2024-01-10T08:14:42;35.57;;;16.67;;
20146;SDS011;10234;50.856;15.716;2024-01-10T08:17:11;33.42;;;18.05;;
20146;SDS011;10234;50.856;15.716;2024-01-10T08:19:38;26.65;;;15.35;;
20146;SDS011;10234;50.856;15.716;2024-01-10T08:22:05;35.92;;;17.30;;
20146;SDS011;10234;50.856;15.716;2024-01-10T08:24:33;30.02;;;15.90;;
20146;SDS011;10234;50.856;15.716;2024-01-10T08:27:01;36.53;;;17.95;;
20146;SDS011;10234;50.856;15.716;2024-01-10T08:29:30;22.80;;;14.57;;
20146;SDS011;10234;50.856;15.716;2024-01-10T08:31:58;26.63;;;14.38;;
20146;SDS011;10234;50.856;15.716;2024-01-10T08:34:25;31.85;;;15.52;;
20146;SDS011;10234;50.856;15.716;2024-01-10T08:36:52;31.35;;;15.85;;
20146;SDS011;10234;50.856;15.716;2024-01-10T08:39:19;33.75;;;17.45;;
20146;SDS011;10234;50.856;15.716;2024-01-10T08:41:47;36.97;;;17.10;;
20146;SDS011;10234;50.856;15.716;2024-01-10T08:44:16;40.30;;;19.25;;
20146;SDS011;10234;50.856;15.716;2024-01-10T08:46:44;42.38;;;19.83;;
20146;SDS011;10234;50.856;15.716;2024-01-10T08:49:11;53.55;;;23.88;;
20146;SDS011;10234;50.856;15.716;2024-01-10T08:51:39;61.03;;;30.75;;
20146;SDS011;10234;50.856;15.716;2024-01-10T08:54:08;61.00;;;28.65;;
20146;SDS011;10234;50.856;15.716;2024-01-10T08:56:35;66.68;;;30.42;;
20146;SDS011;10234;50.856;15.716;2024-01-10T08:59:05;69.25;;;35.38;;
20146;SDS011;10234;50.856;15.716;2024-01-10T09:01:34;78.72;;;34.63;;
20146;SDS011;10234;50.856;15.716;2024-01-10T09:04:00;70.93;;;34.10;;
20146;SDS011;10234;50.856;15.716;2024-01-10T09:06:29;78.07;;;36.33;;
20146;SDS011;10234;50.856;15.716;2024-01-10T09:08:57;78.13;;;37.47;;
20146;SDS011;10234;50.856;15.716;2024-01-10T09:11:30;88.68;;;40.72;;
20146;SDS011;10234;50.856;15.716;2024-01-10T09:13:57;74.22;;;38.15;;
20146;SDS011;10234;50.856;15.716;2024-01-10T09:16:25;76.60;;;37.90;;
20146;SDS011;10234;50.856;15.716;2024-01-10T09:18:54;68.28;;;32.97;;
20146;SDS011;10234;50.856;15.716;2024-01-10T09:21:22;77.75;;;35.72;;
20146;SDS011;10234;50.856;15.716;2024-01-10T09:23:49;67.65;;;32.75;;
20146;SDS011;10234;50.856;15.716;2024-01-10T09:26:16;82.85;;;33.58;;
20146;SDS011;10234;50.856;15.716;2024-01-10T09:28:44;74.00;;;33.17;;
20146;SDS011;10234;50.856;15.716;2024-01-10T09:31:11;71.22;;;32.55;;
20146;SDS011;10234;50.856;15.716;2024-01-10T09:33:37;68.60;;;32.65;;
20146;SDS011;10234;50.856;15.716;2024-01-10T09:36:06;67.32;;;32.50;;
20146;SDS011;10234;50.856;15.716;2024-01-10T09:38:34;62.53;;;30.48;;
20146;SDS011;10234;50.856;15.716;2024-01-10T09:41:02;63.97;;;31.42;;
20146;SDS011;10234;50.856;15.716;2024-01-10T09:43:31;62.80;;;32.40;;
20146;SDS011;10234;50.856;15.716;2024-01-10T09:45:59;69.88;;;33.80;;
20146;SDS011;10234;50.856;15.716;2024-01-10T09:48:28;55.88;;;28.30;;
20146;SDS011;10234;50.856;15.716;2024-01-10T09:50:56;50.97;;;26.02;;
20146;SDS011;10234;50.856;15.716;2024-01-10T09:53:25;57.47;;;29.15;;
20146;SDS011;10234;50.856;15.716;2024-01-10T09:55:52;59.15;;;28.90;;
20146;SDS011;10234;50.856;15.716;2024-01-10T09:58:25;57.50;;;29.15;;
20146;SDS011;10234;50.856;15.716;2024-01-10T10:00:52;65.65;;;33.90;;
20146;SDS011;10234;50.856;15.716;2024-01-10T10:03:22;62.00;;;29.02;;
20146;SDS011;10234;50.856;15.716;2024-01-10T10:05:52;62.35;;;32.05;;
20146;SDS011;10234;50.856;15.716;2024-01-10T10:08:19;56.88;;;28.42;;
20146;SDS011;10234;50.856;15.716;2024-01-10T10:10:49;49.78;;;25.95;;
20146;SDS011;10234;50.856;15.716;2024-01-10T10:13:23;47.10;;;24.88;;
20146;SDS011;10234;50.856;15.716;2024-01-10T10:15:57;42.55;;;22.60;;
20146;SDS011;10234;50.856;15.716;2024-01-10T10:18:25;42.97;;;23.88;;
20146;SDS011;10234;50.856;15.716;2024-01-10T10:21:06;48.13;;;24.38;;
20146;SDS011;10234;50.856;15.716;2024-01-10T10:23:33;49.80;;;27.05;;
20146;SDS011;10234;50.856;15.716;2024-01-10T10:26:03;57.65;;;30.10;;
20146;SDS011;10234;50.856;15.716;2024-01-10T10:28:39;59.50;;;30.42;;
20146;SDS011;10234;50.856;15.716;2024-01-10T10:31:07;63.00;;;30.30;;
20146;SDS011;10234;50.856;15.716;2024-01-10T10:33:34;63.53;;;30.17;;
20146;SDS011;10234;50.856;15.716;2024-01-10T10:36:02;50.42;;;26.60;;
20146;SDS011;10234;50.856;15.716;2024-01-10T10:38:29;53.03;;;28.10;;
20146;SDS011;10234;50.856;15.716;2024-01-10T10:40:57;62.35;;;29.70;;
20146;SDS011;10234;50.856;15.716;2024-01-10T10:43:26;62.20;;;29.67;;
20146;SDS011;10234;50.856;15.716;2024-01-10T10:45:58;62.38;;;29.80;;
20146;SDS011;10234;50.856;15.716;2024-01-10T10:48:26;59.15;;;32.50;;
20146;SDS011;10234;50.856;15.716;2024-01-10T10:50:59;65.68;;;33.05;;
20146;SDS011;10234;50.856;15.716;2024-01-10T10:53:31;64.72;;;34.90;;
20146;SDS011;10234;50.856;15.716;2024-01-10T10:56:02;69.97;;;36.10;;
20146;SDS011;10234;50.856;15.716;2024-01-10T10:58:36;77.25;;;40.28;;
20146;SDS011;10234;50.856;15.716;2024-01-10T11:01:07;79.70;;;39.95;;
20146;SDS011;10234;50.856;15.716;2024-01-10T11:03:36;77.53;;;40.97;;
20146;SDS011;10234;50.856;15.716;2024-01-10T11:06:05;84.18;;;40.92;;
20146;SDS011;10234;50.856;15.716;2024-01-10T11:08:34;80.40;;;40.33;;
20146;SDS011;10234;50.856;15.716;2024-01-10T11:11:03;79.07;;;40.42;;
20146;SDS011;10234;50.856;15.716;2024-01-10T11:14:00;74.25;;;39.80;;
20146;SDS011;10234;50.856;15.716;2024-01-10T11:19:48;63.10;;;34.95;;
20146;SDS011;10234;50.856;15.716;2024-01-10T11:22:42;65.55;;;32.63;;
20146;SDS011;10234;50.856;15.716;2024-01-10T11:25:18;67.90;;;35.45;;
20146;SDS011;10234;50.856;15.716;2024-01-10T11:27:51;66.13;;;34.78;;
20146;SDS011;10234;50.856;15.716;2024-01-10T11:30:30;67.82;;;33.65;;
20146;SDS011;10234;50.856;15.716;2024-01-10T11:33:00;72.03;;;35.03;;
20146;SDS011;10234;50.856;15.716;2024-01-10T11:35:28;68.97;;;34.13;;
20146;SDS011;10234;50.856;15.716;2024-01-10T11:37:59;71.68;;;35.78;;
20146;SDS011;10234;50.856;15.716;2024-01-10T11:40:46;79.25;;;38.05;;
20146;SDS011;10234;50.856;15.716;2024-01-10T11:43:14;71.53;;;36.08;;
20146;SDS011;10234;50.856;15.716;2024-01-10T11:45:51;75.07;;;38.08;;
20146;SDS011;10234;50.856;15.716;2024-01-10T11:48:25;70.40;;;36.88;;
20146;SDS011;10234;50.856;15.716;2024-01-10T11:50:53;70.88;;;35.95;;
20146;SDS011;10234;50.856;15.716;2024-01-10T11:53:39;82.68;;;38.33;;
20146;SDS011;10234;50.856;15.716;2024-01-10T11:56:10;70.82;;;35.22;;
20146;SDS011;10234;50.856;15.716;2024-01-10T11:58:55;84.35;;;38.03;;
20146;SDS011;10234;50.856;15.716;2024-01-10T12:01:28;68.35;;;35.67;;
20146;SDS011;10234;50.856;15.716;2024-01-10T12:03:56;80.82;;;39.58;;
20146;SDS011;10234;50.856;15.716;2024-01-10T12:06:25;78.28;;;38.00;;
20146;SDS011;10234;50.856;15.716;2024-01-10T12:08:53;73.82;;;35.58;;
20146;SDS011;10234;50.856;15.716;2024-01-10T12:11:20;75.43;;;34.88;;
20146;SDS011;10234;50.856;15.716;2024-01-10T12:13:48;77.28;;;36.15;;
20146;SDS011;10234;50.856;15.716;2024-01-10T12:16:15;74.20;;;36.83;;
20146;SDS011;10234;50.856;15.716;2024-01-10T12:18:44;73.85;;;35.42;;
20146;SDS011;10234;50.856;15.716;2024-01-10T12:21:12;63.78;;;32.22;;
20146;SDS011;10234;50.856;15.716;2024-01-10T12:23:39;56.92;;;30.13;;
20146;SDS011;10234;50.856;15.716;2024-01-10T12:26:07;63.70;;;32.30;;
20146;SDS011;10234;50.856;15.716;2024-01-10T12:28:37;70.28;;;34.47;;
20146;SDS011;10234;50.856;15.716;2024-01-10T12:31:05;59.53;;;32.22;;
20146;SDS011;10234;50.856;15.716;2024-01-10T12:33:33;70.90;;;32.58;;
20146;SDS011;10234;50.856;15.716;2024-01-10T12:36:06;62.08;;;30.70;;
20146;SDS011;10234;50.856;15.716;2024-01-10T12:38:35;63.92;;;31.67;;
20146;SDS011;10234;50.856;15.716;2024-01-10T12:41:04;69.93;;;32.67;;
20146;SDS011;10234;50.856;15.716;2024-01-10T12:43:31;73.78;;;35.05;;
20146;SDS011;10234;50.856;15.716;2024-01-10T12:46:04;71.57;;;34.83;;
20146;SDS011;10234;50.856;15.716;2024-01-10T12:48:32;74.35;;;35.58;;
20146;SDS011;10234;50.856;15.716;2024-01-10T12:51:02;73.88;;;36.42;;
20146;SDS011;10234;50.856;15.716;2024-01-10T12:53:32;72.55;;;36.35;;
20146;SDS011;10234;50.856;15.716;2024-01-10T12:56:01;70.38;;;36.00;;
20146;SDS011;10234;50.856;15.716;2024-01-10T12:58:28;69.00;;;31.25;;
20146;SDS011;10234;50.856;15.716;2024-01-10T13:00:55;56.42;;;27.40;;
20146;SDS011;10234;50.856;15.716;2024-01-10T13:03:22;60.38;;;27.85;;
20146;SDS011;10234;50.856;15.716;2024-01-10T13:05:50;55.30;;;27.08;;
20146;SDS011;10234;50.856;15.716;2024-01-10T13:08:17;53.05;;;27.35;;
20146;SDS011;10234;50.856;15.716;2024-01-10T13:10:46;52.85;;;26.33;;
20146;SDS011;10234;50.856;15.716;2024-01-10T13:13:13;56.65;;;27.00;;
20146;SDS011;10234;50.856;15.716;2024-01-10T13:15:42;62.13;;;27.70;;
20146;SDS011;10234;50.856;15.716;2024-01-10T13:18:09;54.25;;;26.40;;
20146;SDS011;10234;50.856;15.716;2024-01-10T13:20:36;63.03;;;28.58;;
20146;SDS011;10234;50.856;15.716;2024-01-10T13:23:04;63.00;;;29.55;;
20146;SDS011;10234;50.856;15.716;2024-01-10T13:25:31;65.05;;;31.27;;
20146;SDS011;10234;50.856;15.716;2024-01-10T13:27:59;58.28;;;26.35;;
20146;SDS011;10234;50.856;15.716;2024-01-10T13:30:26;58.20;;;26.40;;
20146;SDS011;10234;50.856;15.716;2024-01-10T13:32:54;53.85;;;26.08;;
20146;SDS011;10234;50.856;15.716;2024-01-10T13:35:23;57.28;;;27.13;;
20146;SDS011;10234;50.856;15.716;2024-01-10T13:37:50;55.60;;;25.88;;
20146;SDS011;10234;50.856;15.716;2024-01-10T13:40:17;54.65;;;26.65;;
20146;SDS011;10234;50.856;15.716;2024-01-10T13:42:48;61.33;;;26.85;;
20146;SDS011;10234;50.856;15.716;2024-01-10T13:45:17;50.67;;;27.33;;
20146;SDS011;10234;50.856;15.716;2024-01-10T13:47:45;58.75;;;25.75;;
20146;SDS011;10234;50.856;15.716;2024-01-10T13:50:14;55.08;;;25.95;;
20146;SDS011;10234;50.856;15.716;2024-01-10T13:52:41;49.38;;;24.92;;
20146;SDS011;10234;50.856;15.716;2024-01-10T13:55:08;60.03;;;27.90;;
20146;SDS011;10234;50.856;15.716;2024-01-10T13:57:35;60.50;;;26.42;;
20146;SDS011;10234;50.856;15.716;2024-01-10T14:00:03;56.03;;;24.80;;
20146;SDS011;10234;50.856;15.716;2024-01-10T14:02:33;66.75;;;27.73;;
20146;SDS011;10234;50.856;15.716;2024-01-10T14:05:00;61.15;;;27.48;;
20146;SDS011;10234;50.856;15.716;2024-01-10T14:07:30;50.60;;;26.42;;
20146;SDS011;10234;50.856;15.716;2024-01-10T14:09:58;57.53;;;25.70;;
20146;SDS011;10234;50.856;15.716;2024-01-10T14:12:26;57.08;;;26.48;;
20146;SDS011;10234;50.856;15.716;2024-01-10T14:14:54;46.88;;;25.63;;
20146;SDS011;10234;50.856;15.716;2024-01-10T14:17:22;51.85;;;25.95;;
20146;SDS011;10234;50.856;15.716;2024-01-10T14:19:50;49.50;;;24.23;;
20146;SDS011;10234;50.856;15.716;2024-01-10T14:22:18;58.17;;;25.95;;
20146;SDS011;10234;50.856;15.716;2024-01-10T14:24:45;62.10;;;28.27;;
20146;SDS011;10234;50.856;15.716;2024-01-10T14:27:12;53.85;;;26.85;;